sensor_id;sensor_type;location;lat;lon;timestamp;temperature;humidity
19870;DHT22;10097;50.862;4.696;2023-02-11T00:01:48;7.90;99.90
19870;DHT22;10097;50.862;4.696;2023-02-11T00:04:14;7.80;99.90
19870;DHT22;10097;50.862;4.696;2023-02-11T00:06:40;7.80;99.90
19870;DHT22;10097;50.862;4.696;2023-02-11T00:09:06;7.80;99.90
19870;DHT22;10097;50.862;4.696;2023-02-11T00:11:32;7.70;99.90
19870;DHT22;10097;50.862;4.696;2023-02-11T00:14:03;7.80;99.90
19870;DHT22;10097;50.862;4.696;2023-02-11T00:16:29;7.80;99.90
19870;DHT22;10097;50.862;4.696;2023-02-11T00:18:58;7.80;99.90
19870;DHT22;10097;50.862;4.696;2023-02-11T00:21:25;7.70;99.90
19870;DHT22;10097;50.862;4.696;2023-02-11T00:23:51;7.60;99.90
19870;DHT22;10097;50.862;4.696;2023-02-11T00:26:26;7.50;99.90
19870;DHT22;10097;50.862;4.696;2023-02-11T00:28:52;7.40;99.90
19870;DHT22;10097;50.862;4.696;2023-02-11T00:31:19;7.40;99.90
19870;DHT22;10097;50.862;4.696;2023-02-11T00:33:45;7.40;99.90
19870;DHT22;10097;50.862;4.696;2023-02-11T00:36:15;7.40;99.90
19870;DHT22;10097;50.862;4.696;2023-02-11T00:38:45;7.40;99.90
19870;DHT22;10097;50.862;4.696;2023-02-11T00:41:12;7.40;99.90
19870;DHT22;10097;50.862;4.696;2023-02-11T00:43:38;7.40;99.90
19870;DHT22;10097;50.862;4.696;2023-02-11T00:46:04;7.40;99.90
19870;DHT22;10097;50.862;4.696;2023-02-11T00:48:31;7.30;99.90
19870;DHT22;10097;50.862;4.696;2023-02-11T00:50:57;7.40;99.90
19870;DHT22;10097;50.862;4.696;2023-02-11T00:53:23;7.40;99.90
19870;DHT22;10097;50.862;4.696;2023-02-11T00:55:48;7.30;99.90
19870;DHT22;10097;50.862;4.696;2023-02-11T00:58:14;7.20;99.90
19870;DHT22;10097;50.862;4.696;2023-02-11T01:00:40;7.20;99.90
19870;DHT22;10097;50.862;4.696;2023-02-11T01:03:05;7.20;99.90
19870;DHT22;10097;50.862;4.696;2023-02-11T01:05:31;7.20;99.90
19870;DHT22;10097;50.862;4.696;2023-02-11T01:07:57;7.30;99.90
19870;DHT22;10097;50.862;4.696;2023-02-11T01:10:23;7.30;99.90
19870;DHT22;10097;50.862;4.696;2023-02-11T01:12:49;7.30;99.90
19870;DHT22;10097;50.862;4.696;2023-02-11T01:15:17;7.30;99.90
19870;DHT22;10097;50.862;4.696;2023-02-11T01:17:42;7.30;99.90
19870;DHT22;10097;50.862;4.696;2023-02-11T01:20:15;7.30;99.90
19870;DHT22;10097;50.862;4.696;2023-02-11T01:22:41;7.30;99.90
19870;DHT22;10097;50.862;4.696;2023-02-11T01:25:08;7.40;99.90
19870;DHT22;10097;50.862;4.696;2023-02-11T01:27:33;7.40;99.90
19870;DHT22;10097;50.862;4.696;2023-02-11T01:30:00;7.50;99.90
19870;DHT22;10097;50.862;4.696;2023-02-11T01:32:26;7.50;99.90
19870;DHT22;10097;50.862;4.696;2023-02-11T01:34:52;7.60;99.90
19870;DHT22;10097;50.862;4.696;2023-02-11T01:37:17;7.70;99.90
19870;DHT22;10097;50.862;4.696;2023-02-11T01:39:43;7.70;99.90
19870;DHT22;10097;50.862;4.696;2023-02-11T01:42:15;7.60;99.90
19870;DHT22;10097;50.862;4.696;2023-02-11T01:44:41;7.60;99.90
19870;DHT22;10097;50.862;4.696;2023-02-11T01:47:07;7.50;99.90
19870;DHT22;10097;50.862;4.696;2023-02-11T01:49:38;7.50;99.90
19870;DHT22;10097;50.862;4.696;2023-02-11T01:52:18;7.50;99.90
19870;DHT22;10097;50.862;4.696;2023-02-11T01:54:50;7.50;99.90
19870;DHT22;10097;50.862;4.696;2023-02-11T01:57:38;7.50;99.90
19870;DHT22;10097;50.862;4.696;2023-02-11T02:03:09;7.40;99.90
19870;DHT22;10097;50.862;4.696;2023-02-11T02:05:52;7.30;99.90
19870;DHT22;10097;50.862;4.696;2023-02-11T02:11:03;7.40;99.90
19870;DHT22;10097;50.862;4.696;2023-02-11T02:13:35;7.50;99.90
19870;DHT22;10097;50.862;4.696;2023-02-11T02:16:04;7.50;99.90
19870;DHT22;10097;50.862;4.696;2023-02-11T02:32:21;8.00;99.90
19870;DHT22;10097;50.862;4.696;2023-02-11T02:40:04;8.00;99.90
19870;DHT22;10097;50.862;4.696;2023-02-11T02:42:31;8.00;99.90
19870;DHT22;10097;50.862;4.696;2023-02-11T02:44:57;8.10;99.90
19870;DHT22;10097;50.862;4.696;2023-02-11T02:47:23;8.20;99.90
19870;DHT22;10097;50.862;4.696;2023-02-11T02:49:48;8.30;99.90
19870;DHT22;10097;50.862;4.696;2023-02-11T02:55:37;8.30;99.90
19870;DHT22;10097;50.862;4.696;2023-02-11T02:58:20;8.40;99.90
19870;DHT22;10097;50.862;4.696;2023-02-11T03:04:11;8.30;99.90
19870;DHT22;10097;50.862;4.696;2023-02-11T03:06:48;8.40;99.90
19870;DHT22;10097;50.862;4.696;2023-02-11T03:09:30;8.40;99.90
19870;DHT22;10097;50.862;4.696;2023-02-11T03:11:58;8.40;99.90
19870;DHT22;10097;50.862;4.696;2023-02-11T03:14:25;8.50;99.90
19870;DHT22;10097;50.862;4.696;2023-02-11T03:16:52;8.50;99.90
19870;DHT22;10097;50.862;4.696;2023-02-11T03:19:25;8.40;99.90
19870;DHT22;10097;50.862;4.696;2023-02-11T03:21:54;8.50;99.90
19870;DHT22;10097;50.862;4.696;2023-02-11T03:24:33;8.50;99.90
19870;DHT22;10097;50.862;4.696;2023-02-11T03:27:11;8.50;99.90
19870;DHT22;10097;50.862;4.696;2023-02-11T03:32:56;8.60;99.90
19870;DHT22;10097;50.862;4.696;2023-02-11T03:35:25;8.60;99.90
19870;DHT22;10097;50.862;4.696;2023-02-11T03:37:59;8.60;99.90
19870;DHT22;10097;50.862;4.696;2023-02-11T03:40:38;8.50;99.90
19870;DHT22;10097;50.862;4.696;2023-02-11T03:43:17;8.50;99.90
19870;DHT22;10097;50.862;4.696;2023-02-11T03:45:47;8.60;99.90
19870;DHT22;10097;50.862;4.696;2023-02-11T03:48:18;8.70;99.90
19870;DHT22;10097;50.862;4.696;2023-02-11T03:50:47;8.60;99.90
19870;DHT22;10097;50.862;4.696;2023-02-11T03:53:14;8.50;99.90
19870;DHT22;10097;50.862;4.696;2023-02-11T03:55:41;8.40;99.90
19870;DHT22;10097;50.862;4.696;2023-02-11T03:58:08;8.40;99.90
19870;DHT22;10097;50.862;4.696;2023-02-11T04:00:36;8.40;99.90
19870;DHT22;10097;50.862;4.696;2023-02-11T04:03:04;8.50;99.90
19870;DHT22;10097;50.862;4.696;2023-02-11T04:05:30;8.50;99.90
19870;DHT22;10097;50.862;4.696;2023-02-11T04:07:56;8.60;99.90
19870;DHT22;10097;50.862;4.696;2023-02-11T04:10:22;8.50;99.90
19870;DHT22;10097;50.862;4.696;2023-02-11T04:12:47;8.50;99.90
19870;DHT22;10097;50.862;4.696;2023-02-11T04:15:13;8.50;99.90
19870;DHT22;10097;50.862;4.696;2023-02-11T04:17:39;8.50;99.90
19870;DHT22;10097;50.862;4.696;2023-02-11T04:20:05;8.50;99.90
19870;DHT22;10097;50.862;4.696;2023-02-11T04:22:31;8.50;99.90
19870;DHT22;10097;50.862;4.696;2023-02-11T04:24:56;8.60;99.90
19870;DHT22;10097;50.862;4.696;2023-02-11T04:27:22;8.60;99.90
19870;DHT22;10097;50.862;4.696;2023-02-11T04:29:48;8.60;99.90
19870;DHT22;10097;50.862;4.696;2023-02-11T04:32:14;8.50;99.90
19870;DHT22;10097;50.862;4.696;2023-02-11T04:34:39;8.40;99.90
19870;DHT22;10097;50.862;4.696;2023-02-11T04:37:05;8.40;99.90
19870;DHT22;10097;50.862;4.696;2023-02-11T04:39:31;8.40;99.90
19870;DHT22;10097;50.862;4.696;2023-02-11T04:41:57;8.50;99.90
19870;DHT22;10097;50.862;4.696;2023-02-11T04:44:22;8.50;99.90
19870;DHT22;10097;50.862;4.696;2023-02-11T04:46:48;8.50;99.90
19870;DHT22;10097;50.862;4.696;2023-02-11T04:49:14;8.50;99.90
19870;DHT22;10097;50.862;4.696;2023-02-11T04:51:40;8.40;99.90
19870;DHT22;10097;50.862;4.696;2023-02-11T04:54:06;8.30;99.90
19870;DHT22;10097;50.862;4.696;2023-02-11T04:56:32;8.30;99.90
19870;DHT22;10097;50.862;4.696;2023-02-11T04:58:58;8.40;99.90
19870;DHT22;10097;50.862;4.696;2023-02-11T05:01:24;8.40;99.90
19870;DHT22;10097;50.862;4.696;2023-02-11T05:03:49;8.50;99.90
19870;DHT22;10097;50.862;4.696;2023-02-11T05:06:15;8.40;99.90
19870;DHT22;10097;50.862;4.696;2023-02-11T05:08:41;8.50;99.90
19870;DHT22;10097;50.862;4.696;2023-02-11T05:11:14;8.50;99.90
19870;DHT22;10097;50.862;4.696;2023-02-11T05:13:40;8.50;99.90
19870;DHT22;10097;50.862;4.696;2023-02-11T05:16:06;8.50;99.90
19870;DHT22;10097;50.862;4.696;2023-02-11T05:18:31;8.50;99.90
19870;DHT22;10097;50.862;4.696;2023-02-11T05:20:57;8.50;99.90
19870;DHT22;10097;50.862;4.696;2023-02-11T05:23:23;8.50;99.90
19870;DHT22;10097;50.862;4.696;2023-02-11T05:25:48;8.50;99.90
19870;DHT22;10097;50.862;4.696;2023-02-11T05:28:14;8.40;99.90
19870;DHT22;10097;50.862;4.696;2023-02-11T05:30:40;8.40;99.90
19870;DHT22;10097;50.862;4.696;2023-02-11T05:33:05;8.40;99.90
19870;DHT22;10097;50.862;4.696;2023-02-11T05:35:31;8.40;99.90
19870;DHT22;10097;50.862;4.696;2023-02-11T05:37:57;8.50;99.90
19870;DHT22;10097;50.862;4.696;2023-02-11T05:40:22;8.40;99.90
19870;DHT22;10097;50.862;4.696;2023-02-11T05:42:48;8.50;99.90
19870;DHT22;10097;50.862;4.696;2023-02-11T05:45:14;8.30;99.90
19870;DHT22;10097;50.862;4.696;2023-02-11T05:47:39;8.30;99.90
19870;DHT22;10097;50.862;4.696;2023-02-11T05:50:05;8.30;99.90
19870;DHT22;10097;50.862;4.696;2023-02-11T05:52:31;8.30;99.90
19870;DHT22;10097;50.862;4.696;2023-02-11T05:54:56;8.40;99.90
19870;DHT22;10097;50.862;4.696;2023-02-11T05:57:22;8.40;99.90
19870;DHT22;10097;50.862;4.696;2023-02-11T05:59:48;8.40;99.90
19870;DHT22;10097;50.862;4.696;2023-02-11T06:02:13;8.40;99.90
19870;DHT22;10097;50.862;4.696;2023-02-11T06:04:39;8.50;99.90
19870;DHT22;10097;50.862;4.696;2023-02-11T06:07:05;8.70;99.90
19870;DHT22;10097;50.862;4.696;2023-02-11T06:09:31;8.60;99.90
19870;DHT22;10097;50.862;4.696;2023-02-11T06:11:57;8.60;99.90
19870;DHT22;10097;50.862;4.696;2023-02-11T06:14:27;8.50;99.90
19870;DHT22;10097;50.862;4.696;2023-02-11T06:16:53;8.60;99.90
19870;DHT22;10097;50.862;4.696;2023-02-11T06:19:18;8.50;99.90
19870;DHT22;10097;50.862;4.696;2023-02-11T06:21:44;8.60;99.90
19870;DHT22;10097;50.862;4.696;2023-02-11T06:24:11;8.50;99.90
19870;DHT22;10097;50.862;4.696;2023-02-11T06:26:36;8.60;99.90
19870;DHT22;10097;50.862;4.696;2023-02-11T06:29:02;8.40;99.90
19870;DHT22;10097;50.862;4.696;2023-02-11T06:31:28;8.30;99.90
19870;DHT22;10097;50.862;4.696;2023-02-11T06:33:53;8.30;99.90
19870;DHT22;10097;50.862;4.696;2023-02-11T06:36:21;8.40;99.90
19870;DHT22;10097;50.862;4.696;2023-02-11T06:38:47;8.40;99.90
19870;DHT22;10097;50.862;4.696;2023-02-11T06:41:15;8.50;99.90
19870;DHT22;10097;50.862;4.696;2023-02-11T06:43:41;8.60;99.90
19870;DHT22;10097;50.862;4.696;2023-02-11T06:46:07;8.70;99.90
19870;DHT22;10097;50.862;4.696;2023-02-11T06:48:34;8.70;99.90
19870;DHT22;10097;50.862;4.696;2023-02-11T06:51:07;8.70;99.90
19870;DHT22;10097;50.862;4.696;2023-02-11T06:53:39;8.60;99.90
19870;DHT22;10097;50.862;4.696;2023-02-11T06:56:07;8.70;99.90
19870;DHT22;10097;50.862;4.696;2023-02-11T06:58:34;8.70;99.90
19870;DHT22;10097;50.862;4.696;2023-02-11T07:01:02;8.90;99.90
19870;DHT22;10097;50.862;4.696;2023-02-11T07:03:28;8.90;99.90
19870;DHT22;10097;50.862;4.696;2023-02-11T07:05:53;8.90;99.90
19870;DHT22;10097;50.862;4.696;2023-02-11T07:08:19;8.90;99.90
19870;DHT22;10097;50.862;4.696;2023-02-11T07:10:45;8.90;99.90
19870;DHT22;10097;50.862;4.696;2023-02-11T07:13:10;8.90;99.90
19870;DHT22;10097;50.862;4.696;2023-02-11T07:15:36;9.00;99.90
19870;DHT22;10097;50.862;4.696;2023-02-11T07:18:02;9.00;99.90
19870;DHT22;10097;50.862;4.696;2023-02-11T07:20:28;9.00;99.90
19870;DHT22;10097;50.862;4.696;2023-02-11T07:22:54;9.00;99.90
19870;DHT22;10097;50.862;4.696;2023-02-11T07:25:20;9.00;99.90
19870;DHT22;10097;50.862;4.696;2023-02-11T07:27:45;9.10;99.90
19870;DHT22;10097;50.862;4.696;2023-02-11T07:30:11;9.10;99.90
19870;DHT22;10097;50.862;4.696;2023-02-11T07:32:37;9.20;99.90
19870;DHT22;10097;50.862;4.696;2023-02-11T07:35:03;9.20;99.90
19870;DHT22;10097;50.862;4.696;2023-02-11T07:37:29;9.30;99.90
19870;DHT22;10097;50.862;4.696;2023-02-11T07:39:55;9.30;99.90
19870;DHT22;10097;50.862;4.696;2023-02-11T07:42:20;9.20;99.90
19870;DHT22;10097;50.862;4.696;2023-02-11T07:44:46;9.30;99.90
19870;DHT22;10097;50.862;4.696;2023-02-11T07:47:12;9.20;99.90
19870;DHT22;10097;50.862;4.696;2023-02-11T07:49:37;9.20;99.90
19870;DHT22;10097;50.862;4.696;2023-02-11T07:52:03;9.20;99.90
19870;DHT22;10097;50.862;4.696;2023-02-11T07:54:29;9.20;99.90
19870;DHT22;10097;50.862;4.696;2023-02-11T07:56:54;9.20;99.90
19870;DHT22;10097;50.862;4.696;2023-02-11T07:59:20;9.20;99.90
19870;DHT22;10097;50.862;4.696;2023-02-11T08:01:46;9.20;99.90
19870;DHT22;10097;50.862;4.696;2023-02-11T08:04:11;9.20;99.90
19870;DHT22;10097;50.862;4.696;2023-02-11T08:06:41;9.20;99.90
19870;DHT22;10097;50.862;4.696;2023-02-11T08:09:09;9.20;99.90
19870;DHT22;10097;50.862;4.696;2023-02-11T08:11:35;9.40;99.90
19870;DHT22;10097;50.862;4.696;2023-02-11T08:14:01;9.50;99.90
19870;DHT22;10097;50.862;4.696;2023-02-11T08:16:32;9.50;99.90
19870;DHT22;10097;50.862;4.696;2023-02-11T08:19:01;9.60;99.90
19870;DHT22;10097;50.862;4.696;2023-02-11T08:21:27;9.50;99.90
19870;DHT22;10097;50.862;4.696;2023-02-11T08:23:53;9.40;99.90
19870;DHT22;10097;50.862;4.696;2023-02-11T08:26:26;9.40;99.90
19870;DHT22;10097;50.862;4.696;2023-02-11T08:28:54;9.50;99.90
19870;DHT22;10097;50.862;4.696;2023-02-11T08:31:22;9.50;99.90
19870;DHT22;10097;50.862;4.696;2023-02-11T08:33:48;9.50;99.90
19870;DHT22;10097;50.862;4.696;2023-02-11T08:36:17;9.60;99.90
19870;DHT22;10097;50.862;4.696;2023-02-11T08:38:43;9.50;99.90
19870;DHT22;10097;50.862;4.696;2023-02-11T08:41:09;9.40;99.90
19870;DHT22;10097;50.862;4.696;2023-02-11T08:43:36;9.30;99.90
19870;DHT22;10097;50.862;4.696;2023-02-11T08:46:02;9.20;99.90
19870;DHT22;10097;50.862;4.696;2023-02-11T08:48:28;9.30;99.90
19870;DHT22;10097;50.862;4.696;2023-02-11T08:50:55;9.40;99.90
19870;DHT22;10097;50.862;4.696;2023-02-11T08:53:21;9.40;99.90
19870;DHT22;10097;50.862;4.696;2023-02-11T08:55:51;9.40;99.90
19870;DHT22;10097;50.862;4.696;2023-02-11T08:58:17;9.30;99.90
19870;DHT22;10097;50.862;4.696;2023-02-11T09:00:43;9.30;99.90
19870;DHT22;10097;50.862;4.696;2023-02-11T09:03:10;9.30;99.90
19870;DHT22;10097;50.862;4.696;2023-02-11T09:05:46;9.50;99.90
19870;DHT22;10097;50.862;4.696;2023-02-11T09:08:13;9.50;99.90
19870;DHT22;10097;50.862;4.696;2023-02-11T09:10:39;9.60;99.90
19870;DHT22;10097;50.862;4.696;2023-02-11T09:13:05;9.50;99.90
19870;DHT22;10097;50.862;4.696;2023-02-11T09:15:31;9.60;99.90
19870;DHT22;10097;50.862;4.696;2023-02-11T09:17:57;9.70;99.90
19870;DHT22;10097;50.862;4.696;2023-02-11T09:20:23;9.70;99.90
19870;DHT22;10097;50.862;4.696;2023-02-11T09:22:49;9.60;99.90
19870;DHT22;10097;50.862;4.696;2023-02-11T09:25:14;9.60;99.90
19870;DHT22;10097;50.862;4.696;2023-02-11T09:27:40;9.60;99.90
19870;DHT22;10097;50.862;4.696;2023-02-11T09:30:07;9.60;99.90
19870;DHT22;10097;50.862;4.696;2023-02-11T09:32:33;9.70;99.90
19870;DHT22;10097;50.862;4.696;2023-02-11T09:34:58;9.60;99.90
19870;DHT22;10097;50.862;4.696;2023-02-11T09:37:24;9.50;99.90
19870;DHT22;10097;50.862;4.696;2023-02-11T09:39:50;9.50;99.90
19870;DHT22;10097;50.862;4.696;2023-02-11T09:42:47;9.50;99.90
19870;DHT22;10097;50.862;4.696;2023-02-11T09:45:27;9.40;99.90
19870;DHT22;10097;50.862;4.696;2023-02-11T09:47:54;9.50;99.90
19870;DHT22;10097;50.862;4.696;2023-02-11T09:50:42;9.60;99.90
19870;DHT22;10097;50.862;4.696;2023-02-11T09:53:24;9.70;99.90
19870;DHT22;10097;50.862;4.696;2023-02-11T09:55:55;9.60;99.90
19870;DHT22;10097;50.862;4.696;2023-02-11T09:58:34;9.60;99.90
19870;DHT22;10097;50.862;4.696;2023-02-11T10:04:20;9.80;99.90
19870;DHT22;10097;50.862;4.696;2023-02-11T10:15:14;9.90;99.90
19870;DHT22;10097;50.862;4.696;2023-02-11T10:21:02;9.90;99.90
19870;DHT22;10097;50.862;4.696;2023-02-11T10:23:26;10.00;99.90
19870;DHT22;10097;50.862;4.696;2023-02-11T10:25:54;10.10;99.90
19870;DHT22;10097;50.862;4.696;2023-02-11T10:28:25;10.30;99.90
19870;DHT22;10097;50.862;4.696;2023-02-11T10:31:10;10.40;99.90
19870;DHT22;10097;50.862;4.696;2023-02-11T10:33:46;10.50;99.90
19870;DHT22;10097;50.862;4.696;2023-02-11T10:36:17;10.50;99.90
19870;DHT22;10097;50.862;4.696;2023-02-11T10:38:43;10.60;99.90
19870;DHT22;10097;50.862;4.696;2023-02-11T10:41:14;10.60;99.90
19870;DHT22;10097;50.862;4.696;2023-02-11T10:43:41;10.60;99.90
19870;DHT22;10097;50.862;4.696;2023-02-11T10:46:14;10.60;99.90
19870;DHT22;10097;50.862;4.696;2023-02-11T10:48:49;10.40;99.90
19870;DHT22;10097;50.862;4.696;2023-02-11T10:51:22;10.40;99.90
19870;DHT22;10097;50.862;4.696;2023-02-11T10:54:10;10.60;99.90
19870;DHT22;10097;50.862;4.696;2023-02-11T10:56:47;10.70;99.90
19870;DHT22;10097;50.862;4.696;2023-02-11T10:59:36;10.70;99.90
19870;DHT22;10097;50.862;4.696;2023-02-11T11:02:22;10.70;99.90
19870;DHT22;10097;50.862;4.696;2023-02-11T11:04:49;10.60;99.90
19870;DHT22;10097;50.862;4.696;2023-02-11T11:07:26;10.50;99.90
19870;DHT22;10097;50.862;4.696;2023-02-11T11:10:05;10.60;99.90
19870;DHT22;10097;50.862;4.696;2023-02-11T11:12:45;10.60;99.90
19870;DHT22;10097;50.862;4.696;2023-02-11T11:15:29;10.70;99.90
19870;DHT22;10097;50.862;4.696;2023-02-11T11:18:16;10.60;99.90
19870;DHT22;10097;50.862;4.696;2023-02-11T11:20:57;10.70;99.90
19870;DHT22;10097;50.862;4.696;2023-02-11T11:23:24;10.70;99.90
19870;DHT22;10097;50.862;4.696;2023-02-11T11:28:32;10.70;99.90
19870;DHT22;10097;50.862;4.696;2023-02-11T11:31:01;10.80;99.90
19870;DHT22;10097;50.862;4.696;2023-02-11T11:33:30;10.60;99.90
19870;DHT22;10097;50.862;4.696;2023-02-11T11:36:10;10.70;99.90
19870;DHT22;10097;50.862;4.696;2023-02-11T11:38:44;10.80;99.90
19870;DHT22;10097;50.862;4.696;2023-02-11T11:46:33;10.80;99.90
19870;DHT22;10097;50.862;4.696;2023-02-11T11:49:28;10.70;99.90
19870;DHT22;10097;50.862;4.696;2023-02-11T11:54:57;10.80;99.90
19870;DHT22;10097;50.862;4.696;2023-02-11T11:57:26;10.90;99.90
19870;DHT22;10097;50.862;4.696;2023-02-11T11:59:54;11.00;99.90
19870;DHT22;10097;50.862;4.696;2023-02-11T12:02:44;11.00;99.90
19870;DHT22;10097;50.862;4.696;2023-02-11T12:05:34;11.10;99.90
19870;DHT22;10097;50.862;4.696;2023-02-11T12:16:35;11.50;99.90
19870;DHT22;10097;50.862;4.696;2023-02-11T12:32:41;11.20;99.90
19870;DHT22;10097;50.862;4.696;2023-02-11T12:40:40;11.10;99.90
19870;DHT22;10097;50.862;4.696;2023-02-11T12:43:53;11.20;99.90
19870;DHT22;10097;50.862;4.696;2023-02-11T12:54:55;11.00;99.90
19870;DHT22;10097;50.862;4.696;2023-02-11T12:57:33;11.00;99.90
19870;DHT22;10097;50.862;4.696;2023-02-11T13:06:13;11.00;99.90
19870;DHT22;10097;50.862;4.696;2023-02-11T13:08:31;10.90;99.90
19870;DHT22;10097;50.862;4.696;2023-02-11T13:11:01;10.80;99.90
19870;DHT22;10097;50.862;4.696;2023-02-11T13:13:41;10.90;99.90
19870;DHT22;10097;50.862;4.696;2023-02-11T13:30:28;11.30;99.90
19870;DHT22;10097;50.862;4.696;2023-02-11T13:37:54;11.40;99.90
19870;DHT22;10097;50.862;4.696;2023-02-11T13:40:24;11.30;99.90
19870;DHT22;10097;50.862;4.696;2023-02-11T13:42:55;11.30;99.90
19870;DHT22;10097;50.862;4.696;2023-02-11T13:45:42;11.20;99.90
19870;DHT22;10097;50.862;4.696;2023-02-11T13:48:19;11.40;99.90
19870;DHT22;10097;50.862;4.696;2023-02-11T13:50:48;11.40;99.90
19870;DHT22;10097;50.862;4.696;2023-02-11T13:53:16;11.60;99.90
19870;DHT22;10097;50.862;4.696;2023-02-11T13:55:45;11.50;99.90
19870;DHT22;10097;50.862;4.696;2023-02-11T13:58:32;11.60;99.90
19870;DHT22;10097;50.862;4.696;2023-02-11T14:01:00;11.60;99.90
19870;DHT22;10097;50.862;4.696;2023-02-11T14:03:35;11.60;99.90
19870;DHT22;10097;50.862;4.696;2023-02-11T14:06:25;11.60;99.90
19870;DHT22;10097;50.862;4.696;2023-02-11T14:09:35;11.50;99.90
19870;DHT22;10097;50.862;4.696;2023-02-11T14:12:36;11.40;99.90
19870;DHT22;10097;50.862;4.696;2023-02-11T14:17:32;11.30;99.90
19870;DHT22;10097;50.862;4.696;2023-02-11T14:19:59;11.40;99.90
19870;DHT22;10097;50.862;4.696;2023-02-11T14:22:48;11.50;99.90
19870;DHT22;10097;50.862;4.696;2023-02-11T14:25:19;11.50;99.90
19870;DHT22;10097;50.862;4.696;2023-02-11T14:27:56;11.40;99.90
19870;DHT22;10097;50.862;4.696;2023-02-11T14:39:06;11.20;99.90
19870;DHT22;10097;50.862;4.696;2023-02-11T14:41:39;11.30;99.90
19870;DHT22;10097;50.862;4.696;2023-02-11T14:44:15;11.20;99.90
19870;DHT22;10097;50.862;4.696;2023-02-11T14:46:47;11.10;99.90
19870;DHT22;10097;50.862;4.696;2023-02-11T14:49:37;11.20;99.90
19870;DHT22;10097;50.862;4.696;2023-02-11T14:52:29;11.10;99.90
19870;DHT22;10097;50.862;4.696;2023-02-11T14:55:21;11.00;99.90
19870;DHT22;10097;50.862;4.696;2023-02-11T14:58:11;11.10;99.90
19870;DHT22;10097;50.862;4.696;2023-02-11T15:03:34;11.20;99.90
19870;DHT22;10097;50.862;4.696;2023-02-11T15:06:18;11.20;99.90
19870;DHT22;10097;50.862;4.696;2023-02-11T15:08:47;11.20;99.90
19870;DHT22;10097;50.862;4.696;2023-02-11T15:11:16;11.10;99.90
19870;DHT22;10097;50.862;4.696;2023-02-11T15:13:43;11.20;99.90
19870;DHT22;10097;50.862;4.696;2023-02-11T15:16:16;11.10;99.90
19870;DHT22;10097;50.862;4.696;2023-02-11T15:19:04;11.20;99.90
19870;DHT22;10097;50.862;4.696;2023-02-11T15:21:33;11.20;99.90
19870;DHT22;10097;50.862;4.696;2023-02-11T15:24:02;11.20;99.90
19870;DHT22;10097;50.862;4.696;2023-02-11T15:26:30;11.10;99.90
19870;DHT22;10097;50.862;4.696;2023-02-11T15:28:56;11.20;99.90
19870;DHT22;10097;50.862;4.696;2023-02-11T15:31:25;11.20;99.90
19870;DHT22;10097;50.862;4.696;2023-02-11T15:33:51;11.20;99.90
19870;DHT22;10097;50.862;4.696;2023-02-11T15:36:21;11.20;99.90
19870;DHT22;10097;50.862;4.696;2023-02-11T15:39:14;11.20;99.90
19870;DHT22;10097;50.862;4.696;2023-02-11T15:41:40;11.40;99.90
19870;DHT22;10097;50.862;4.696;2023-02-11T15:44:29;11.40;99.90
19870;DHT22;10097;50.862;4.696;2023-02-11T15:46:56;11.30;99.90
19870;DHT22;10097;50.862;4.696;2023-02-11T15:49:23;11.30;99.90
19870;DHT22;10097;50.862;4.696;2023-02-11T15:51:49;11.40;99.90
19870;DHT22;10097;50.862;4.696;2023-02-11T15:54:27;11.30;99.90
19870;DHT22;10097;50.862;4.696;2023-02-11T15:57:00;11.20;99.90
19870;DHT22;10097;50.862;4.696;2023-02-11T16:02:24;11.10;99.90
19870;DHT22;10097;50.862;4.696;2023-02-11T16:05:01;11.20;99.90
19870;DHT22;10097;50.862;4.696;2023-02-11T16:07:49;11.30;99.90
19870;DHT22;10097;50.862;4.696;2023-02-11T16:10:31;11.30;99.90
19870;DHT22;10097;50.862;4.696;2023-02-11T16:13:00;11.30;99.90
19870;DHT22;10097;50.862;4.696;2023-02-11T16:20:49;11.30;99.90
19870;DHT22;10097;50.862;4.696;2023-02-11T16:23:25;11.30;99.90
19870;DHT22;10097;50.862;4.696;2023-02-11T16:26:00;11.30;99.90
19870;DHT22;10097;50.862;4.696;2023-02-11T16:28:26;11.30;99.90
19870;DHT22;10097;50.862;4.696;2023-02-11T16:30:54;11.30;99.90
19870;DHT22;10097;50.862;4.696;2023-02-11T16:33:20;11.20;99.90
19870;DHT22;10097;50.862;4.696;2023-02-11T16:35:46;11.20;99.90
19870;DHT22;10097;50.862;4.696;2023-02-11T16:38:15;11.20;99.90
19870;DHT22;10097;50.862;4.696;2023-02-11T16:40:42;11.20;99.90
19870;DHT22;10097;50.862;4.696;2023-02-11T16:43:09;11.20;99.90
19870;DHT22;10097;50.862;4.696;2023-02-11T16:45:38;11.30;99.90
19870;DHT22;10097;50.862;4.696;2023-02-11T16:48:08;11.20;99.90
19870;DHT22;10097;50.862;4.696;2023-02-11T16:50:34;11.20;99.90
19870;DHT22;10097;50.862;4.696;2023-02-11T16:53:00;11.10;99.90
19870;DHT22;10097;50.862;4.696;2023-02-11T16:55:31;11.10;99.90
19870;DHT22;10097;50.862;4.696;2023-02-11T16:57:57;11.10;99.90
19870;DHT22;10097;50.862;4.696;2023-02-11T17:00:22;11.10;99.90
19870;DHT22;10097;50.862;4.696;2023-02-11T17:02:48;11.10;99.90
19870;DHT22;10097;50.862;4.696;2023-02-11T17:05:21;11.00;99.90
19870;DHT22;10097;50.862;4.696;2023-02-11T17:07:48;11.10;99.90
19870;DHT22;10097;50.862;4.696;2023-02-11T17:10:19;11.20;99.90
19870;DHT22;10097;50.862;4.696;2023-02-11T17:12:46;11.10;99.90
19870;DHT22;10097;50.862;4.696;2023-02-11T17:15:14;11.10;99.90
19870;DHT22;10097;50.862;4.696;2023-02-11T17:17:39;11.00;99.90
19870;DHT22;10097;50.862;4.696;2023-02-11T17:20:06;11.00;99.90
19870;DHT22;10097;50.862;4.696;2023-02-11T17:22:33;11.00;99.90
19870;DHT22;10097;50.862;4.696;2023-02-11T17:24:58;11.10;99.90
19870;DHT22;10097;50.862;4.696;2023-02-11T17:27:24;11.10;99.90
19870;DHT22;10097;50.862;4.696;2023-02-11T17:29:50;11.00;99.90
19870;DHT22;10097;50.862;4.696;2023-02-11T17:32:15;11.00;99.90
19870;DHT22;10097;50.862;4.696;2023-02-11T17:34:41;11.00;99.90
19870;DHT22;10097;50.862;4.696;2023-02-11T17:37:06;10.90;99.90
19870;DHT22;10097;50.862;4.696;2023-02-11T17:39:37;10.90;99.90
19870;DHT22;10097;50.862;4.696;2023-02-11T17:42:03;10.90;99.90
19870;DHT22;10097;50.862;4.696;2023-02-11T17:44:30;10.80;99.90
19870;DHT22;10097;50.862;4.696;2023-02-11T17:46:56;10.80;99.90
19870;DHT22;10097;50.862;4.696;2023-02-11T17:49:22;10.80;99.90
19870;DHT22;10097;50.862;4.696;2023-02-11T17:51:47;10.80;99.90
19870;DHT22;10097;50.862;4.696;2023-02-11T17:54:15;10.70;99.90
19870;DHT22;10097;50.862;4.696;2023-02-11T17:56:42;10.70;99.90
19870;DHT22;10097;50.862;4.696;2023-02-11T17:59:08;10.70;99.90
19870;DHT22;10097;50.862;4.696;2023-02-11T18:01:35;10.80;99.90
19870;DHT22;10097;50.862;4.696;2023-02-11T18:04:01;10.70;99.90
19870;DHT22;10097;50.862;4.696;2023-02-11T18:06:28;10.70;99.90
19870;DHT22;10097;50.862;4.696;2023-02-11T18:08:54;10.70;99.90
19870;DHT22;10097;50.862;4.696;2023-02-11T18:11:22;10.70;99.90
19870;DHT22;10097;50.862;4.696;2023-02-11T18:13:49;10.70;99.90
19870;DHT22;10097;50.862;4.696;2023-02-11T18:16:19;10.80;99.90
19870;DHT22;10097;50.862;4.696;2023-02-11T18:18:45;10.70;99.90
19870;DHT22;10097;50.862;4.696;2023-02-11T18:21:13;10.70;99.90